Time;durP1;ratioP1;P1;durP2;ratioP2;P2;SDS_P1;SDS_P2;PMS_P1;PMS_P2;Temp;Humidity;BMP_temperature;BMP_pressure;BME280_temperature;BME280_humidity;BME280_pressure;Samples;Min_cycle;Max_cycle;Signal;HPM_P1;HPM_P2
2022/02/27 00:01:18;;;;;;;5.90;1.80;;;3.00;99.90;;;;;;4974673;28;20214;-70
2022/02/27 00:03:45;;;;;;;9.17;2.00;;;3.10;99.90;;;;;;4973829;28;20405;-71
2022/02/27 00:06:12;;;;;;;4.63;1.70;;;3.00;99.90;;;;;;4974029;28;20302;-72
2022/02/27 00:08:40;;;;;;;8.13;1.77;;;3.00;99.90;;;;;;4974778;28;20230;-74
2022/02/27 00:11:07;;;;;;;2.70;1.37;;;3.00;99.90;;;;;;4974858;28;20211;-73
2022/02/27 00:13:34;;;;;;;4.90;1.97;;;3.00;99.90;;;;;;4974750;28;20231;-74
2022/02/27 00:16:01;;;;;;;5.47;2.03;;;3.00;99.90;;;;;;4974545;28;20207;-74
2022/02/27 00:18:28;;;;;;;5.00;1.37;;;3.00;99.90;;;;;;4976040;28;20293;-74
2022/02/27 00:20:54;;;;;;;9.70;1.80;;;3.00;99.90;;;;;;4993812;28;20752;-73
2022/02/27 00:23:21;;;;;;;3.07;1.57;;;3.00;99.90;;;;;;4994403;28;20704;-74
2022/02/27 00:25:49;;;;;;;5.20;1.97;;;3.00;99.90;;;;;;4993874;28;20289;-74
2022/02/27 00:28:16;;;;;;;6.40;1.63;;;3.00;99.90;;;;;;4993615;28;20246;-74
2022/02/27 00:30:43;;;;;;;3.33;1.70;;;2.90;99.90;;;;;;4993847;28;20303;-72
2022/02/27 00:33:10;;;;;;;5.67;1.60;;;3.00;99.90;;;;;;4993861;28;20334;-74
2022/02/27 00:35:37;;;;;;;7.63;1.67;;;3.00;99.90;;;;;;4993263;28;20222;-72
2022/02/27 00:38:04;;;;;;;2.70;1.60;;;3.00;99.90;;;;;;4993788;28;20242;-71
2022/02/27 00:40:31;;;;;;;5.17;1.67;;;2.80;99.90;;;;;;4993323;28;20299;-72
2022/02/27 00:42:59;;;;;;;4.90;1.50;;;2.80;99.90;;;;;;4993652;28;20222;-72
2022/02/27 00:45:26;;;;;;;3.87;1.43;;;2.90;99.90;;;;;;4993969;28;20323;-72
2022/02/27 00:47:53;;;;;;;7.97;1.57;;;3.00;99.90;;;;;;4993721;28;20206;-71
2022/02/27 00:50:20;;;;;;;4.00;1.50;;;3.00;99.90;;;;;;4993464;28;20320;-71
2022/02/27 00:52:47;;;;;;;3.50;1.53;;;3.00;99.90;;;;;;4993250;28;20273;-71
2022/02/27 00:55:14;;;;;;;3.97;1.57;;;3.00;99.90;;;;;;4993425;28;20217;-71
2022/02/27 00:57:40;;;;;;;6.93;1.57;;;2.70;99.90;;;;;;4993410;28;20302;-72
2022/02/27 01:00:10;;;;;;;4.13;1.60;;;2.60;99.90;;;;;;4993232;28;20282;-71
2022/02/27 01:02:37;;;;;;;3.17;1.70;;;2.40;99.90;;;;;;4993145;28;20313;-71
2022/02/27 01:05:04;;;;;;;8.40;1.57;;;2.30;99.90;;;;;;4993224;28;20237;-72
2022/02/27 01:07:31;;;;;;;5.40;1.43;;;2.20;99.90;;;;;;4993461;28;20206;-72
2022/02/27 01:09:58;;;;;;;4.37;1.67;;;2.30;99.90;;;;;;4993110;28;20719;-74
2022/02/27 01:12:25;;;;;;;4.00;1.43;;;2.30;99.90;;;;;;4992855;28;20322;-74
2022/02/27 01:14:52;;;;;;;8.63;1.10;;;2.30;99.90;;;;;;4993324;28;20207;-74
2022/02/27 01:17:20;;;;;;;9.13;1.93;;;2.40;99.90;;;;;;4993274;28;20306;-74
2022/02/27 01:19:46;;;;;;;8.33;1.30;;;2.50;99.90;;;;;;4981421;28;20207;-74
2022/02/27 01:22:13;;;;;;;5.97;1.37;;;2.50;99.90;;;;;;4973600;28;20306;-73
2022/02/27 01:24:40;;;;;;;4.27;1.53;;;2.50;99.90;;;;;;4973814;28;20663;-73
2022/02/27 01:27:07;;;;;;;3.50;1.83;;;2.40;99.90;;;;;;4973847;28;20203;-74
2022/02/27 01:29:34;;;;;;;5.60;1.13;;;2.40;99.90;;;;;;4973388;28;20285;-71
2022/02/27 01:32:01;;;;;;;1.90;1.30;;;2.30;99.90;;;;;;4973821;28;20209;-73
2022/02/27 01:34:29;;;;;;;3.97;1.30;;;2.30;99.90;;;;;;4974130;28;20218;-72
2022/02/27 01:36:57;;;;;;;6.40;1.57;;;2.20;99.90;;;;;;4973476;28;20211;-74
2022/02/27 01:39:23;;;;;;;5.13;1.63;;;2.00;99.90;;;;;;4973743;28;20262;-73
2022/02/27 01:41:50;;;;;;;6.23;2.00;;;2.00;99.90;;;;;;4973350;28;20213;-73
2022/02/27 01:44:18;;;;;;;6.70;1.60;;;1.80;99.90;;;;;;4973692;28;20689;-72
2022/02/27 01:46:59;;;;;;;6.07;1.50;;;1.70;99.90;;;;;;4974357;28;20207;-71
2022/02/27 01:49:26;;;;;;;3.27;1.50;;;1.70;99.90;;;;;;4977379;28;20231;-72
2022/02/27 01:51:55;;;;;;;6.70;1.77;;;1.60;99.90;;;;;;4976915;28;20218;-71
2022/02/27 01:54:22;;;;;;;13.73;2.43;;;1.40;99.90;;;;;;4977444;28;20203;-74
2022/02/27 01:56:49;;;;;;;3.87;1.57;;;1.30;99.90;;;;;;4977254;28;20219;-72
2022/02/27 01:59:17;;;;;;;6.27;2.07;;;1.20;99.90;;;;;;4977243;28;20298;-74
2022/02/27 02:01:44;;;;;;;5.70;1.90;;;1.20;99.90;;;;;;4977329;28;20761;-75
2022/02/27 02:04:11;;;;;;;4.47;1.53;;;1.20;99.90;;;;;;4977101;28;20222;-74
2022/02/27 02:06:38;;;;;;;6.03;1.83;;;1.30;99.90;;;;;;4976892;28;20257;-74
2022/02/27 02:09:06;;;;;;;7.73;1.60;;;1.30;99.90;;;;;;4978099;28;20240;-72
2022/02/27 02:11:33;;;;;;;7.07;2.03;;;1.50;99.90;;;;;;4985401;28;20209;-72
2022/02/27 02:14:02;;;;;;;4.13;1.53;;;1.60;99.90;;;;;;4996247;28;20226;-72
2022/02/27 02:16:39;;;;;;;5.63;1.93;;;1.60;99.90;;;;;;4982293;28;20203;-72
2022/02/27 02:19:06;;;;;;;3.40;1.67;;;1.70;99.90;;;;;;4976746;28;20218;-72
2022/02/27 02:21:38;;;;;;;6.00;1.67;;;1.70;99.90;;;;;;4976377;28;20207;-74
2022/02/27 02:24:05;;;;;;;9.67;2.00;;;1.70;99.90;;;;;;4976492;28;20729;-74
2022/02/27 02:26:35;;;;;;;5.53;1.43;;;1.70;99.90;;;;;;4976207;28;20207;-74
2022/02/27 02:29:02;;;;;;;7.67;1.70;;;1.60;99.90;;;;;;4982802;28;20218;-72
2022/02/27 02:31:29;;;;;;;8.67;1.77;;;1.60;99.90;;;;;;4996306;28;20217;-72
2022/02/27 02:33:56;;;;;;;5.07;1.57;;;1.50;99.90;;;;;;4985953;28;20223;-72
2022/02/27 02:36:23;;;;;;;2.83;1.13;;;1.50;99.90;;;;;;4976151;28;20226;-73
2022/02/27 02:38:51;;;;;;;6.67;2.10;;;1.60;99.90;;;;;;4976697;28;20298;-74
2022/02/27 02:41:18;;;;;;;4.80;2.20;;;1.50;99.90;;;;;;4976434;28;20217;-72
2022/02/27 02:43:47;;;;;;;5.50;2.00;;;1.40;99.90;;;;;;4976164;28;20223;-73
2022/02/27 02:46:14;;;;;;;3.00;1.67;;;1.20;99.90;;;;;;4987105;28;20225;-72
2022/02/27 02:48:40;;;;;;;5.97;2.00;;;1.10;99.90;;;;;;4995831;28;20210;-72
2022/02/27 02:51:07;;;;;;;4.00;1.30;;;1.00;99.90;;;;;;4995837;28;20249;-73
2022/02/27 02:53:35;;;;;;;11.70;1.77;;;0.90;99.90;;;;;;4995340;28;20586;-71
2022/02/27 02:56:05;;;;;;;7.83;2.03;;;0.90;99.90;;;;;;4995775;28;20577;-72
2022/02/27 02:58:32;;;;;;;2.77;1.70;;;0.80;99.90;;;;;;4995615;28;20211;-72
2022/02/27 03:01:00;;;;;;;4.87;2.00;;;0.90;99.90;;;;;;4995837;28;20265;-74
2022/02/27 03:03:27;;;;;;;4.33;1.83;;;0.80;99.90;;;;;;4995736;28;20222;-71
2022/02/27 03:05:54;;;;;;;3.07;1.70;;;0.80;99.90;;;;;;4995212;28;20210;-71
2022/02/27 03:08:21;;;;;;;5.60;1.70;;;0.80;99.90;;;;;;4995137;28;20662;-71
2022/02/27 03:10:47;;;;;;;6.63;1.77;;;0.80;99.90;;;;;;4995283;28;20238;-71
2022/02/27 03:13:16;;;;;;;3.73;1.73;;;0.80;99.90;;;;;;4995029;28;20705;-73
2022/02/27 03:15:43;;;;;;;7.40;1.80;;;0.90;99.90;;;;;;4995403;28;20217;-72
2022/02/27 03:18:09;;;;;;;2.80;1.20;;;0.90;99.90;;;;;;4995280;28;20696;-71
2022/02/27 03:20:36;;;;;;;6.03;1.90;;;0.80;99.90;;;;;;4995608;28;20202;-72
2022/02/27 03:23:03;;;;;;;3.17;1.27;;;0.80;99.90;;;;;;4982121;28;20227;-71
2022/02/27 03:25:30;;;;;;;8.37;1.50;;;0.80;99.90;;;;;;4975929;28;20209;-73
2022/02/27 03:27:56;;;;;;;2.53;1.30;;;0.80;99.90;;;;;;4975347;28;20674;-71
2022/02/27 03:30:25;;;;;;;3.87;1.30;;;0.80;99.90;;;;;;4975894;28;20322;-71
2022/02/27 03:32:52;;;;;;;2.23;1.50;;;0.80;99.90;;;;;;4975555;28;20234;-72
2022/02/27 03:35:21;;;;;;;5.03;1.43;;;0.80;99.90;;;;;;4975546;28;20215;-71
2022/02/27 03:37:50;;;;;;;9.87;2.13;;;0.80;99.90;;;;;;4975681;28;20207;-73
2022/02/27 03:40:18;;;;;;;2.60;1.27;;;0.80;99.90;;;;;;4975737;28;20229;-72
2022/02/27 03:42:45;;;;;;;4.40;1.93;;;0.80;99.90;;;;;;4975247;28;20227;-72
2022/02/27 03:45:13;;;;;;;2.90;1.20;;;0.70;99.90;;;;;;4975642;28;20570;-71
2022/02/27 03:47:42;;;;;;;10.03;2.10;;;0.80;99.90;;;;;;4975849;28;20207;-72
2022/02/27 03:50:10;;;;;;;2.37;1.07;;;0.70;99.90;;;;;;4975196;28;20329;-73
2022/02/27 03:52:37;;;;;;;3.63;1.57;;;0.70;99.90;;;;;;4974974;28;20626;-71
2022/02/27 03:55:05;;;;;;;6.00;1.30;;;0.70;99.90;;;;;;4975219;28;20282;-72
2022/02/27 03:57:32;;;;;;;3.13;1.10;;;0.70;99.90;;;;;;4975319;28;20207;-71
2022/02/27 03:59:59;;;;;;;3.90;1.47;;;0.70;99.90;;;;;;4975450;28;20203;-71
2022/02/27 04:02:26;;;;;;;4.60;1.63;;;0.70;99.90;;;;;;4975389;28;20233;-71
2022/02/27 04:04:54;;;;;;;5.13;1.97;;;0.60;99.90;;;;;;4974985;28;20207;-72
2022/02/27 04:07:21;;;;;;;4.47;1.50;;;0.60;99.90;;;;;;4975060;28;20214;-71
2022/02/27 04:09:48;;;;;;;13.17;1.50;;;0.60;99.90;;;;;;4974093;28;20231;-71
2022/02/27 04:12:15;;;;;;;3.40;1.70;;;0.60;99.90;;;;;;4974667;28;20231;-72
2022/02/27 04:14:42;;;;;;;3.77;1.30;;;0.70;99.90;;;;;;4975195;28;20299;-71
2022/02/27 04:17:08;;;;;;;5.13;1.57;;;0.70;99.90;;;;;;4974890;28;20318;-72
2022/02/27 04:19:35;;;;;;;6.70;1.43;;;0.60;99.90;;;;;;4974631;28;20663;-72
2022/02/27 04:22:04;;;;;;;4.07;1.57;;;0.70;99.90;;;;;;4979127;28;20206;-71
2022/02/27 04:24:30;;;;;;;6.50;1.20;;;0.70;99.90;;;;;;4993966;28;20214;-71
2022/02/27 04:26:58;;;;;;;3.87;1.37;;;0.70;99.90;;;;;;4992758;28;20206;-73
2022/02/27 04:29:25;;;;;;;2.83;1.07;;;0.80;99.90;;;;;;4993970;28;20733;-73
2022/02/27 04:31:51;;;;;;;2.80;1.70;;;0.70;99.90;;;;;;4993734;28;20202;-71
2022/02/27 04:34:18;;;;;;;9.40;2.13;;;0.70;99.90;;;;;;4993677;28;20669;-72
2022/02/27 04:36:45;;;;;;;4.03;1.87;;;0.90;99.90;;;;;;4993344;28;20225;-72
2022/02/27 04:39:14;;;;;;;3.70;1.37;;;1.00;99.90;;;;;;4993990;28;20207;-71
2022/02/27 04:41:41;;;;;;;2.17;1.10;;;1.00;99.90;;;;;;4992850;28;20211;-71
2022/02/27 04:44:08;;;;;;;5.63;1.37;;;1.10;99.90;;;;;;4993432;28;20241;-72
2022/02/27 04:46:35;;;;;;;7.53;1.50;;;1.10;99.90;;;;;;4993277;28;20233;-72
2022/02/27 04:49:01;;;;;;;3.20;1.37;;;1.00;99.90;;;;;;4993493;28;20218;-71
2022/02/27 04:51:28;;;;;;;10.50;1.70;;;1.00;99.90;;;;;;4993130;28;20230;-71
2022/02/27 04:53:55;;;;;;;3.67;1.13;;;1.00;99.90;;;;;;4993627;28;20233;-71
2022/02/27 04:56:23;;;;;;;3.57;1.60;;;0.90;99.90;;;;;;4993198;28;20569;-72
2022/02/27 04:58:50;;;;;;;4.50;1.40;;;0.90;99.90;;;;;;4993520;28;20210;-71
2022/02/27 05:01:17;;;;;;;3.80;1.17;;;0.90;99.90;;;;;;4993334;28;20206;-71
2022/02/27 05:03:44;;;;;;;7.00;1.50;;;0.80;99.90;;;;;;4993399;28;20233;-72
2022/02/27 05:06:11;;;;;;;2.03;1.30;;;0.70;99.90;;;;;;4993052;28;20203;-70
2022/02/27 05:08:38;;;;;;;2.67;1.27;;;0.70;99.90;;;;;;4992466;28;20674;-71
2022/02/27 05:11:05;;;;;;;4.53;1.97;;;0.70;99.90;;;;;;4992517;28;20234;-72
2022/02/27 05:13:34;;;;;;;3.07;1.50;;;0.70;99.90;;;;;;4992422;28;20222;-71
2022/02/27 05:16:00;;;;;;;10.93;1.60;;;0.60;99.90;;;;;;4993304;28;20220;-71
2022/02/27 05:18:27;;;;;;;6.20;1.70;;;0.60;99.90;;;;;;4993267;28;20213;-71
2022/02/27 05:20:54;;;;;;;3.70;1.20;;;0.60;99.90;;;;;;4993454;28;20625;-71
2022/02/27 05:23:21;;;;;;;8.60;1.40;;;0.60;99.90;;;;;;4996195;28;20233;-71
2022/02/27 05:25:48;;;;;;;5.60;1.17;;;0.50;99.90;;;;;;4996790;28;20212;-71
2022/02/27 05:28:15;;;;;;;3.30;1.50;;;0.50;99.90;;;;;;4996614;28;20534;-72
2022/02/27 05:30:43;;;;;;;2.53;1.50;;;0.50;99.90;;;;;;4996873;28;20241;-72
2022/02/27 05:33:14;;;;;;;6.00;1.77;;;0.60;99.90;;;;;;4996853;28;20230;-71
2022/02/27 05:35:41;;;;;;;4.03;1.23;;;0.60;99.90;;;;;;4997180;28;20690;-72
2022/02/27 05:38:08;;;;;;;7.03;1.77;;;0.60;99.90;;;;;;4997063;28;20577;-71
2022/02/27 05:40:34;;;;;;;5.43;1.57;;;0.50;99.90;;;;;;4997084;28;20210;-75
2022/02/27 05:43:01;;;;;;;7.00;1.30;;;0.40;99.90;;;;;;4996305;28;20226;-74
2022/02/27 05:45:28;;;;;;;4.63;1.60;;;0.40;99.90;;;;;;4996495;28;20222;-71
2022/02/27 05:47:56;;;;;;;4.23;1.53;;;0.30;99.90;;;;;;4997176;28;20214;-74
2022/02/27 05:50:23;;;;;;;5.67;1.50;;;0.30;99.90;;;;;;4996998;28;20241;-74
2022/02/27 05:52:50;;;;;;;5.27;1.23;;;0.30;99.90;;;;;;4996791;28;20234;-71
2022/02/27 05:55:17;;;;;;;6.50;1.67;;;0.20;99.90;;;;;;4996729;28;20677;-73
2022/02/27 05:57:43;;;;;;;2.90;1.00;;;0.30;99.90;;;;;;4997047;28;20206;-72
2022/02/27 06:00:11;;;;;;;8.53;2.07;;;0.20;99.90;;;;;;4995940;28;20207;-73
2022/02/27 06:02:38;;;;;;;1.93;1.20;;;0.20;99.90;;;;;;4996542;28;20231;-71
2022/02/27 06:05:08;;;;;;;4.97;1.30;;;0.20;99.90;;;;;;4996816;28;20205;-72
2022/02/27 06:07:34;;;;;;;4.30;1.17;;;0.20;99.90;;;;;;4996525;28;20207;-71
2022/02/27 06:10:01;;;;;;;3.13;1.63;;;0.10;99.90;;;;;;4996459;28;20217;-71
2022/02/27 06:12:28;;;;;;;5.27;1.60;;;0.00;99.90;;;;;;4996474;28;20317;-71
2022/02/27 06:14:55;;;;;;;1.67;1.17;;;-0.10;99.90;;;;;;4996572;28;20217;-72
2022/02/27 06:17:22;;;;;;;2.27;1.00;;;-0.10;99.90;;;;;;4995913;28;20206;-71
2022/02/27 06:19:48;;;;;;;3.80;1.10;;;-0.20;99.90;;;;;;4996115;28;20210;-72
2022/02/27 06:22:17;;;;;;;4.40;1.50;;;-0.20;99.90;;;;;;4996257;28;20241;-74
2022/02/27 06:24:44;;;;;;;2.63;1.23;;;-0.30;99.90;;;;;;4996897;28;20211;-73
2022/02/27 06:27:11;;;;;;;3.00;1.17;;;-0.20;99.90;;;;;;4996067;28;20665;-75
2022/02/27 06:29:37;;;;;;;8.30;2.00;;;-0.20;99.90;;;;;;4996481;28;20253;-75
2022/02/27 06:32:05;;;;;;;9.87;3.63;;;-0.10;99.90;;;;;;4996198;28;20234;-74
2022/02/27 06:34:32;;;;;;;9.43;3.50;;;0.00;99.90;;;;;;4995183;28;20202;-72
2022/02/27 06:36:59;;;;;;;8.10;3.17;;;0.00;99.90;;;;;;4995723;28;20214;-73
2022/02/27 06:39:27;;;;;;;7.30;3.43;;;0.00;99.90;;;;;;4996155;28;20561;-73
2022/02/27 06:41:54;;;;;;;10.47;4.73;;;0.00;99.90;;;;;;4995635;28;20206;-72
2022/02/27 06:44:20;;;;;;;12.60;4.07;;;0.10;99.90;;;;;;4996129;28;20217;-74
2022/02/27 06:46:47;;;;;;;10.00;4.03;;;0.00;99.90;;;;;;4996305;28;20218;-73
2022/02/27 06:49:14;;;;;;;8.67;3.47;;;0.10;99.90;;;;;;4995850;28;20206;-74
2022/02/27 06:51:41;;;;;;;5.83;2.60;;;0.00;99.90;;;;;;4994933;28;20589;-71
2022/02/27 06:54:08;;;;;;;4.00;1.60;;;0.00;99.90;;;;;;4995203;28;20732;-74
2022/02/27 06:56:36;;;;;;;5.97;1.80;;;-0.10;99.90;;;;;;4995612;28;20217;-71
2022/02/27 06:59:03;;;;;;;4.77;1.87;;;0.00;99.90;;;;;;4994960;28;20557;-75
2022/02/27 07:01:29;;;;;;;3.07;1.43;;;-0.10;99.90;;;;;;4995514;28;20238;-74
2022/02/27 07:03:56;;;;;;;4.67;1.43;;;0.00;99.90;;;;;;4995014;28;20337;-72
2022/02/27 07:06:23;;;;;;;3.33;1.40;;;0.10;99.90;;;;;;4995318;28;20207;-74
2022/02/27 07:08:50;;;;;;;3.17;1.50;;;0.30;99.90;;;;;;4995231;28;20218;-74
2022/02/27 07:11:16;;;;;;;1.50;1.10;;;0.40;99.90;;;;;;4995157;28;20256;-72
2022/02/27 07:13:47;;;;;;;6.37;1.53;;;0.70;99.90;;;;;;4995074;28;20729;-74
2022/02/27 07:16:15;;;;;;;2.37;1.37;;;1.40;99.90;;;;;;4994344;28;20658;-75
2022/02/27 07:18:42;;;;;;;6.43;1.40;;;2.40;99.90;;;;;;4994905;28;20253;-74
2022/02/27 07:21:09;;;;;;;4.93;1.70;;;3.40;99.90;;;;;;4995391;28;20216;-75
2022/02/27 07:23:36;;;;;;;7.60;2.03;;;4.50;99.90;;;;;;4994942;28;20226;-73
2022/02/27 07:26:03;;;;;;;2.67;1.17;;;5.40;99.90;;;;;;4994637;28;20206;-75
2022/02/27 07:28:30;;;;;;;3.13;1.13;;;6.10;99.90;;;;;;4995145;28;20557;-73
2022/02/27 07:30:58;;;;;;;3.23;1.20;;;6.60;99.90;;;;;;4995177;28;20230;-72
2022/02/27 07:33:25;;;;;;;7.13;1.60;;;7.10;99.90;;;;;;4995002;28;20589;-71
2022/02/27 07:35:52;;;;;;;4.37;1.30;;;7.80;99.90;;;;;;4994781;28;20218;-71
2022/02/27 07:38:19;;;;;;;2.40;1.00;;;8.30;99.90;;;;;;4994823;28;20206;-71
2022/02/27 07:40:48;;;;;;;3.73;1.10;;;9.00;99.90;;;;;;4994730;28;20214;-72
2022/02/27 07:43:15;;;;;;;2.07;1.07;;;9.50;99.90;;;;;;4994595;28;20566;-75
2022/02/27 07:45:42;;;;;;;2.53;1.27;;;9.50;99.90;;;;;;4994057;28;20298;-73
2022/02/27 07:48:10;;;;;;;2.70;1.10;;;9.60;99.90;;;;;;4994120;28;20665;-72
2022/02/27 07:50:36;;;;;;;3.00;1.30;;;9.10;99.90;;;;;;4994343;28;20210;-75
2022/02/27 07:53:03;;;;;;;7.67;1.43;;;8.20;99.90;;;;;;4994851;28;20233;-74
2022/02/27 07:55:30;;;;;;;3.37;1.00;;;8.00;99.90;;;;;;4994462;28;20695;-72
2022/02/27 07:57:57;;;;;;;2.57;1.00;;;7.60;99.90;;;;;;4994319;28;20212;-74
2022/02/27 08:00:24;;;;;;;2.83;0.93;;;7.30;99.90;;;;;;4993639;28;20202;-71
2022/02/27 08:02:51;;;;;;;3.00;1.33;;;7.20;99.90;;;;;;4994289;28;20238;-72
2022/02/27 08:05:20;;;;;;;2.20;0.93;;;6.50;99.90;;;;;;4994143;28;20207;-71
2022/02/27 08:07:47;;;;;;;2.87;1.03;;;6.30;99.90;;;;;;4993495;28;20217;-71
2022/02/27 08:25:59;;;;;;;3.17;1.20;;;5.80;99.90;;;;;;4998396;22;20635;-76
2022/02/27 08:28:26;;;;;;;4.87;1.37;;;5.70;99.90;;;;;;4993653;28;20206;-77
2022/02/27 08:30:53;;;;;;;2.00;1.10;;;5.60;99.90;;;;;;4993412;28;20226;-72
2022/02/27 08:33:20;;;;;;;8.13;1.20;;;5.50;99.90;;;;;;4993150;28;20214;-76
2022/02/27 08:35:47;;;;;;;2.70;1.00;;;5.40;99.90;;;;;;4994001;28;20210;-75
2022/02/27 08:38:13;;;;;;;2.77;0.90;;;5.40;99.90;;;;;;4994085;28;20690;-76
2022/02/27 08:40:40;;;;;;;1.47;0.80;;;5.60;99.90;;;;;;4992476;28;20198;-75
2022/02/27 08:43:09;;;;;;;2.63;0.97;;;5.70;99.90;;;;;;4993149;28;20225;-77
2022/02/27 08:45:36;;;;;;;1.93;1.03;;;6.00;99.90;;;;;;4991920;28;20708;-78
2022/02/27 08:48:03;;;;;;;5.33;0.90;;;6.00;99.90;;;;;;4992129;28;20229;-76
2022/02/27 08:50:30;;;;;;;5.33;0.90;;;6.10;99.90;;;;;;4992294;28;20199;-74
2022/02/27 08:52:57;;;;;;;1.23;0.63;;;6.10;99.90;;;;;;4992228;28;20226;-77
2022/02/27 08:55:24;;;;;;;2.47;0.97;;;6.00;99.90;;;;;;4991974;28;20202;-74
2022/02/27 08:57:52;;;;;;;3.90;1.53;;;6.00;99.90;;;;;;4991408;28;20287;-77
2022/02/27 09:00:20;;;;;;;4.57;1.17;;;5.90;99.90;;;;;;4989061;28;20670;-78
2022/02/27 09:02:48;;;;;;;2.77;0.80;;;6.10;99.90;;;;;;4992183;28;20226;-78
2022/02/27 09:05:15;;;;;;;1.33;0.80;;;6.30;99.90;;;;;;4991921;28;20234;-77
2022/02/27 09:07:42;;;;;;;5.70;1.10;;;6.50;99.90;;;;;;4991810;28;20265;-72
2022/02/27 09:10:12;;;;;;;3.80;1.00;;;6.80;99.90;;;;;;4989786;28;20661;-77
2022/02/27 09:12:41;;;;;;;2.80;1.00;;;6.60;99.90;;;;;;4989854;28;20293;-78
2022/02/27 09:15:08;;;;;;;2.27;0.80;;;6.60;99.90;;;;;;4993643;28;20207;-72
2022/02/27 09:17:36;;;;;;;1.77;0.90;;;6.30;99.90;;;;;;4992804;28;20565;-76
2022/02/27 09:20:04;;;;;;;3.13;0.83;;;6.00;99.90;;;;;;4991049;28;20209;-72
2022/02/27 09:22:31;;;;;;;4.10;1.00;;;5.80;99.90;;;;;;4992980;28;20225;-78
2022/02/27 09:24:58;;;;;;;2.87;0.63;;;5.80;99.90;;;;;;4985648;28;20233;-78
2022/02/27 09:27:25;;;;;;;4.00;1.03;;;5.70;99.90;;;;;;4973735;28;20211;-77
2022/02/27 09:29:53;;;;;;;1.47;0.83;;;5.50;99.90;;;;;;4981849;28;20206;-78
2022/02/27 09:32:20;;;;;;;2.23;0.90;;;5.60;99.90;;;;;;4990228;28;20697;-79
2022/02/27 09:34:48;;;;;;;2.50;0.87;;;5.70;99.90;;;;;;4997987;28;20210;-77
2022/02/27 09:37:15;;;;;;;2.23;0.87;;;5.70;99.90;;;;;;4998809;28;20680;-78
2022/02/27 09:39:42;;;;;;;2.03;0.93;;;5.70;99.90;;;;;;4992583;28;20208;-75
2022/02/27 09:42:09;;;;;;;2.90;0.93;;;5.80;99.90;;;;;;4992978;28;20226;-75
2022/02/27 09:44:41;;;;;;;3.80;0.93;;;5.80;99.90;;;;;;4993185;28;20213;-79
2022/02/27 09:47:11;;;;;;;2.50;0.70;;;5.90;99.90;;;;;;4992836;28;20207;-74
2022/02/27 09:49:41;;;;;;;2.00;0.77;;;6.00;99.90;;;;;;4992691;28;20302;-75
2022/02/27 09:52:09;;;;;;;2.53;1.10;;;5.90;99.90;;;;;;4992752;28;20238;-78
2022/02/27 09:54:37;;;;;;;2.33;0.87;;;5.80;99.90;;;;;;4992890;28;20665;-78
2022/02/27 09:57:04;;;;;;;2.70;1.20;;;5.90;99.90;;;;;;4993075;28;20216;-83
2022/02/27 09:59:31;;;;;;;1.23;0.57;;;5.90;99.90;;;;;;4993416;28;20213;-77
2022/02/27 10:02:02;;;;;;;1.20;0.60;;;6.00;99.90;;;;;;4992634;28;20228;-78
2022/02/27 10:04:34;;;;;;;1.73;1.00;;;6.10;99.90;;;;;;4993441;28;20218;-79
2022/02/27 10:07:00;;;;;;;2.20;1.00;;;6.20;99.90;;;;;;4993293;28;20265;-72
2022/02/27 10:09:29;;;;;;;2.00;0.53;;;6.20;99.90;;;;;;4996650;28;20213;-81
2022/02/27 10:12:11;;;;;;;5.70;1.03;;;6.20;99.90;;;;;;4996233;28;20689;-76
2022/02/27 10:14:38;;;;;;;2.27;0.77;;;6.40;99.90;;;;;;4980756;28;20213;-78
2022/02/27 10:17:06;;;;;;;3.43;0.57;;;6.40;99.90;;;;;;4977362;28;20207;-78
2022/02/27 10:19:37;;;;;;;2.30;0.83;;;6.40;99.90;;;;;;4977819;28;20203;-74
2022/02/27 10:22:04;;;;;;;1.27;0.50;;;6.30;99.90;;;;;;4976991;28;20232;-71
2022/02/27 10:24:35;;;;;;;3.03;0.60;;;6.40;99.90;;;;;;4976461;28;20677;-73
2022/02/27 10:27:09;;;;;;;2.00;0.67;;;6.50;99.90;;;;;;4976565;28;20207;-76
2022/02/27 10:29:36;;;;;;;1.00;0.70;;;6.60;99.90;;;;;;4976878;28;20213;-73
2022/02/27 10:32:05;;;;;;;4.20;0.77;;;6.60;99.90;;;;;;4976443;28;20246;-70
2022/02/27 10:34:34;;;;;;;2.37;0.70;;;6.80;99.90;;;;;;4984931;28;20210;-71
2022/02/27 10:37:04;;;;;;;2.97;1.07;;;6.90;99.90;;;;;;4995971;28;20210;-77
2022/02/27 10:39:39;;;;;;;3.93;1.13;;;6.90;99.90;;;;;;4995489;28;20214;-71
2022/02/27 10:42:14;;;;;;;0.83;0.60;;;7.00;99.90;;;;;;4996097;28;20226;-78
2022/02/27 10:44:43;;;;;;;3.67;0.70;;;7.30;99.90;;;;;;4996079;28;20210;-72
2022/02/27 10:47:13;;;;;;;4.43;0.87;;;7.30;99.90;;;;;;4995343;28;20230;-73
2022/02/27 10:49:39;;;;;;;1.30;0.50;;;7.30;99.90;;;;;;4995051;28;20202;-79
2022/02/27 10:52:15;;;;;;;3.00;0.67;;;7.40;99.90;;;;;;4995554;28;20242;-78
2022/02/27 10:54:45;;;;;;;0.63;0.40;;;7.70;99.90;;;;;;4995521;28;20224;-72
2022/02/27 10:57:26;;;;;;;2.43;0.40;;;7.80;99.00;;;;;;4995486;28;20206;-73
2022/02/27 10:59:53;;;;;;;1.13;0.50;;;7.90;97.60;;;;;;4995787;28;20293;-73
2022/02/27 11:02:23;;;;;;;1.10;0.50;;;7.90;97.90;;;;;;4995534;28;20254;-73
2022/02/27 11:04:51;;;;;;;0.97;0.50;;;8.00;98.10;;;;;;4995346;28;20726;-76
2022/02/27 11:07:18;;;;;;;1.90;0.50;;;8.00;97.40;;;;;;4995215;28;20206;-82
2022/02/27 11:09:46;;;;;;;1.27;0.63;;;8.00;97.10;;;;;;4995430;28;20210;-77
2022/02/27 11:12:13;;;;;;;1.23;0.50;;;8.10;97.70;;;;;;4994623;28;20238;-74
2022/02/27 11:14:42;;;;;;;1.80;0.40;;;8.30;97.20;;;;;;4994059;28;20206;-79
2022/02/27 11:17:10;;;;;;;1.77;0.40;;;8.40;96.90;;;;;;4995590;28;20249;-74
2022/02/27 11:19:38;;;;;;;0.43;0.30;;;8.50;97.30;;;;;;4995396;28;20217;-77
2022/02/27 11:22:05;;;;;;;1.83;0.40;;;8.60;97.10;;;;;;4992930;28;20655;-79
2022/02/27 11:24:33;;;;;;;2.30;0.60;;;8.60;97.30;;;;;;4993344;28;20214;-74
2022/02/27 11:27:03;;;;;;;0.83;0.33;;;8.80;97.40;;;;;;4992904;28;20210;-74
2022/02/27 11:29:30;;;;;;;2.67;0.40;;;8.80;95.30;;;;;;4991195;28;20661;-79
2022/02/27 11:31:58;;;;;;;1.10;0.40;;;8.70;95.50;;;;;;4989956;28;20320;-72
2022/02/27 11:34:28;;;;;;;0.90;0.37;;;8.80;95.60;;;;;;4988526;28;20624;-75
2022/02/27 11:36:55;;;;;;;1.27;0.40;;;8.80;95.50;;;;;;4993305;28;20733;-75
2022/02/27 11:42:08;;;;;;;1.23;0.60;;;9.20;96.10;;;;;;4991560;28;20225;-72
2022/02/27 11:44:37;;;;;;;1.17;0.67;;;9.30;95.20;;;;;;4994514;28;20301;-74
2022/02/27 11:47:07;;;;;;;2.60;0.67;;;9.30;95.70;;;;;;4994713;28;20573;-73
2022/02/27 11:49:36;;;;;;;0.50;0.20;;;9.20;94.70;;;;;;4994411;28;20208;-77
2022/02/27 11:52:13;;;;;;;1.40;0.30;;;9.20;95.10;;;;;;4994342;28;20234;-72
2022/02/27 11:54:46;;;;;;;1.00;0.50;;;9.30;94.70;;;;;;4992206;28;20198;-77
2022/02/27 11:57:16;;;;;;;0.60;0.40;;;9.30;94.70;;;;;;4993768;28;20727;-73
2022/02/27 12:00:02;;;;;;;1.60;0.57;;;9.40;94.30;;;;;;4994125;28;20198;-75
2022/02/27 12:02:44;;;;;;;1.13;0.50;;;9.40;93.90;;;;;;4993913;28;20586;-78
2022/02/27 12:05:13;;;;;;;0.50;0.30;;;9.30;93.70;;;;;;4994684;28;20276;-79
2022/02/27 12:08:09;;;;;;;0.83;0.30;;;9.20;92.90;;;;;;4994774;28;20206;-80
2022/02/27 12:10:41;;;;;;;0.80;0.40;;;9.10;93.30;;;;;;4994688;28;20209;-79
2022/02/27 12:13:22;;;;;;;1.17;0.70;;;9.20;93.90;;;;;;4993406;28;20226;-76
2022/02/27 12:15:49;;;;;;;1.67;0.60;;;9.30;94.30;;;;;;4994019;28;20241;-77
2022/02/27 12:18:23;;;;;;;0.70;0.40;;;9.40;94.00;;;;;;4994404;28;20213;-73
2022/02/27 12:20:54;;;;;;;0.60;0.40;;;9.50;93.70;;;;;;4993997;28;20202;-76
2022/02/27 12:23:47;;;;;;;1.47;0.43;;;9.50;93.80;;;;;;4994270;28;20242;-74
2022/02/27 12:26:52;;;;;;;1.53;0.60;;;9.70;93.40;;;;;;4993679;28;20202;-75
2022/02/27 12:29:29;;;;;;;3.27;0.53;;;9.60;92.70;;;;;;4993560;28;20703;-73
2022/02/27 12:31:57;;;;;;;1.30;0.57;;;9.60;93.20;;;;;;4993237;28;20244;-73
2022/02/27 12:34:24;;;;;;;1.80;0.40;;;9.50;93.00;;;;;;4992478;28;20202;-79
2022/02/27 12:36:53;;;;;;;4.07;0.47;;;9.60;93.50;;;;;;4994016;28;20573;-78
2022/02/27 12:39:20;;;;;;;0.97;0.50;;;9.70;92.50;;;;;;4992972;28;20230;-76
2022/02/27 12:41:49;;;;;;;1.33;0.50;;;9.60;92.60;;;;;;4993932;28;20249;-72
2022/02/27 12:44:26;;;;;;;1.43;0.40;;;9.60;91.80;;;;;;4994100;28;20212;-74
2022/02/27 12:46:54;;;;;;;1.63;0.90;;;9.60;92.80;;;;;;4992865;28;20201;-78
2022/02/27 12:52:12;;;;;;;0.70;0.47;;;9.80;92.90;;;;;;4993653;28;20225;-75
2022/02/27 12:54:39;;;;;;;0.53;0.40;;;9.70;91.90;;;;;;4988725;28;20198;-79
2022/02/27 12:57:08;;;;;;;0.47;0.30;;;9.70;92.80;;;;;;4993647;28;20210;-75
2022/02/27 12:59:38;;;;;;;0.97;0.50;;;9.70;92.50;;;;;;4993361;28;20206;-78
2022/02/27 13:02:06;;;;;;;0.83;0.50;;;9.70;92.80;;;;;;4992833;28;20229;-78
2022/02/27 13:04:35;;;;;;;1.87;0.53;;;9.90;92.90;;;;;;4993468;28;20206;-74
2022/02/27 13:07:05;;;;;;;0.50;0.37;;;9.90;92.60;;;;;;4993931;28;20214;-73
2022/02/27 13:09:35;;;;;;;1.80;0.60;;;9.90;92.70;;;;;;4993766;28;20214;-79
2022/02/27 13:12:09;;;;;;;0.93;0.43;;;10.00;92.10;;;;;;4992758;28;20230;-79
2022/02/27 13:14:37;;;;;;;3.67;0.63;;;10.10;91.90;;;;;;4990086;28;20210;-74
2022/02/27 13:17:11;;;;;;;1.03;0.60;;;10.10;90.90;;;;;;4992421;28;20198;-77
2022/02/27 13:19:39;;;;;;;2.77;0.47;;;10.10;91.70;;;;;;4992542;28;20205;-77
2022/02/27 13:22:09;;;;;;;0.90;0.40;;;10.10;91.50;;;;;;4992166;28;20222;-78